Aérodrome :
LOGIN :

S'inscrire | Disclaimer

   EN    FR    IT 

 










Légende :    VFR   VFR Marginal   IFR   IFR Intensif   IFR Très Intensif
Visi : 
Plafond : 
>= 8 km
>= 3000ft
5 à 8 km
1000 à 3000 ft
1500m à 5 km
500 à 1000 ft
800 à 1500m
200 à 500 ft
< 800m
< 200 ft
Symboles :   Orages  Brouillard  Fortes neiges  Fortes précipitations  Vent > 20 kt
SIGMETs :   Divers  Orages  Givrage  Turbulence  Onde Orograph.  Cendres Volcan.






- Altitude de l'aérodrome : 909 ft
- Code IATA : KSF


EDVK - Kassel Calden

DERNIER METAR :
  • 150750Z 22016KT 9999 -RA SCT018 BKN038 08/06 Q0994

METARs EXPIRÉS :
  • 150720Z 21017KT 9999 SCT018 BKN040 08/06 Q0994
  • 150650Z 21018G28KT 9999 -DZ BKN018 08/06 Q0994
  • 150620Z 20016G28KT 9999 -DZ BKN018 08/05 Q0994

TAF AMD TAF EDVK
Valide du 15 à 07h jusqu'au 15 à 15h UTC


150725Z 1507/1515 22015G25KT 9999 BKN020
TEMPO 1507/1511 22020G35KT 4000 SHRA SCT008 BKN015CB
PROB40
TEMPO 1507/1509 22025G45KT 2000 TSRA BKN008CB



MET'MAP, la Météo Aéronautique d'un coup d'oeil ! - Copyright ORBIFLY Décembre 2007 - Disclaimer

ORBIFLY MET'MAP TEAM :

Programmation & Développement : Alexandra Zaïnal
Sur une idée originale de : Baudouin d'Aumeries
Assistance à la programmation : Marc-Olivier Méhu
Soutien technique & logistique : Manuel Goepfert

Contact : metmap@orbifly.com




SOURCES & CREDITS :

   NOAA